createdAt,value
2022-11-05T00:02:44.408Z,100506.13
2022-11-05T00:05:34.674Z,100509.59
2022-11-05T00:08:24.972Z,100502.59
2022-11-05T00:10:56.688Z,100506.06
2022-11-05T00:13:46.775Z,100485.91
2022-11-05T00:16:41.445Z,100514.81
2022-11-05T00:19:13.651Z,100505.13
2022-11-05T00:22:03.907Z,100518.28
2022-11-05T00:24:53.750Z,100529.66
2022-11-05T00:27:25.439Z,100527.88
2022-11-05T00:29:56.991Z,100522.63
2022-11-05T00:32:28.665Z,100544.53
2022-11-05T00:35:00.199Z,100525.25
2022-11-05T00:37:31.951Z,100532.22
2022-11-05T00:40:04.552Z,100545.41
2022-11-05T00:42:54.913Z,100546.28
2022-11-05T00:45:26.855Z,100553.31
2022-11-05T00:48:17.365Z,100554.22
2022-11-05T00:50:48.854Z,100554.22
2022-11-05T00:53:20.697Z,100550.75
2022-11-05T00:55:53.461Z,100554.31
2022-11-05T00:58:25.016Z,100557.84
2022-11-05T01:00:58.856Z,100548.22
2022-11-05T01:03:36.260Z,100558.78
2022-11-05T01:06:15.790Z,100553.53
2022-11-05T01:08:47.490Z,100548.28
2022-11-05T01:11:35.104Z,100553.56
2022-11-05T01:14:10.040Z,100552.69
2022-11-05T01:16:42.362Z,100550.03
2022-11-05T01:19:13.976Z,100554.41
2022-11-05T01:21:45.388Z,100557.00
2022-11-05T01:24:16.851Z,100567.53
2022-11-05T01:26:48.306Z,100565.78
2022-11-05T01:29:19.894Z,100556.97
2022-11-05T01:31:51.294Z,100569.22
2022-11-05T01:34:23.025Z,100565.69
2022-11-05T01:36:54.307Z,100573.56
2022-11-05T01:39:25.916Z,100564.75
2022-11-05T01:41:58.748Z,100574.38
2022-11-05T01:44:58.421Z,100576.97
2022-11-05T01:47:48.550Z,100576.94
2022-11-05T01:50:22.928Z,100582.19
2022-11-05T01:53:17.880Z,100576.88
2022-11-05T01:56:02.140Z,100583.00
2022-11-05T01:58:39.645Z,100584.75
2022-11-05T02:01:12.250Z,100578.63
2022-11-05T02:03:45.552Z,100583.88
2022-11-05T02:06:18.034Z,100576.88
2022-11-05T02:09:02.165Z,100583.88
2022-11-05T02:11:34.192Z,100581.25
2022-11-05T02:14:05.694Z,100579.44
2022-11-05T02:17:04.111Z,100584.69
2022-11-05T02:20:06.456Z,100581.16
2022-11-05T02:22:51.683Z,100573.22
2022-11-05T02:25:54.109Z,100584.59
2022-11-05T02:28:57.467Z,100586.34
2022-11-05T02:31:52.413Z,100576.63
2022-11-05T02:34:57.661Z,100584.56
2022-11-05T02:37:39.393Z,100589.81
2022-11-05T02:40:17.353Z,100587.19
2022-11-05T02:43:15.136Z,100588.06
2022-11-05T02:46:01.910Z,100573.16
2022-11-05T02:48:49.308Z,100581.09
2022-11-05T02:51:29.684Z,100584.59
2022-11-05T02:54:35.094Z,100580.22
2022-11-05T02:57:06.875Z,100586.34
2022-11-05T02:59:38.139Z,100587.22
2022-11-05T03:02:09.691Z,100578.47
2022-11-05T03:04:41.337Z,100580.22
2022-11-05T03:07:37.925Z,100577.59
2022-11-05T03:10:14.266Z,100578.47
2022-11-05T03:12:48.419Z,100583.72
2022-11-05T03:15:54.821Z,100588.06
2022-11-05T03:18:26.554Z,100606.41
2022-11-05T03:21:11.472Z,100600.28
2022-11-05T03:23:55.095Z,100606.38
2022-11-05T03:26:31.062Z,100586.19
2022-11-05T03:29:08.473Z,100604.59
2022-11-05T03:31:41.629Z,100612.47
2022-11-05T03:34:16.565Z,100594.88
2022-11-05T03:36:53.512Z,100612.44
2022-11-05T03:39:32.150Z,100615.06
2022-11-05T03:42:06.276Z,100625.56
2022-11-05T03:44:41.639Z,100619.38
2022-11-05T03:47:22.157Z,100622.03
2022-11-05T03:50:07.618Z,100624.66
2022-11-05T03:52:48.547Z,100614.09
2022-11-05T03:55:27.771Z,100613.16
2022-11-05T03:57:59.447Z,100626.31
2022-11-05T04:00:30.979Z,100610.50
2022-11-05T04:03:02.372Z,100622.78
2022-11-05T04:05:33.807Z,100623.66
2022-11-05T04:08:23.800Z,100633.28
2022-11-05T04:11:13.647Z,100617.47
2022-11-05T04:13:44.980Z,100620.97
2022-11-05T04:16:34.830Z,100640.28
2022-11-05T04:19:06.560Z,100644.63
2022-11-05T04:21:56.567Z,100649.03
2022-11-05T04:24:27.861Z,100641.13
2022-11-05T04:26:59.254Z,100650.75
2022-11-05T04:29:49.066Z,100659.53
2022-11-05T04:32:20.364Z,100654.28
2022-11-05T04:34:51.628Z,100668.28
2022-11-05T04:37:22.987Z,100664.78
2022-11-05T04:39:54.247Z,100659.50
2022-11-05T04:42:25.545Z,100657.81
2022-11-05T04:44:56.869Z,100656.91
2022-11-05T04:47:28.211Z,100661.31
2022-11-05T04:49:59.569Z,100661.31
2022-11-05T04:52:30.836Z,100656.03
2022-11-05T04:55:02.127Z,100653.44
2022-11-05T04:57:33.592Z,100652.56
2022-11-05T05:00:07.466Z,100654.28
2022-11-05T05:02:38.767Z,100661.28
2022-11-05T05:05:10.341Z,100667.38
2022-11-05T05:07:42.242Z,100670.00
2022-11-05T05:10:13.641Z,100663.88
2022-11-05T05:12:44.962Z,100673.44
2022-11-05T05:15:16.289Z,100675.19
2022-11-05T05:17:51.835Z,100670.78
2022-11-05T05:20:41.636Z,100669.91
2022-11-05T05:23:13.242Z,100672.50
2022-11-05T05:25:44.727Z,100677.75
2022-11-05T05:28:15.999Z,100662.78
2022-11-05T05:30:47.249Z,100673.31
2022-11-05T05:33:18.544Z,100683.78
2022-11-05T05:35:49.804Z,100680.28
2022-11-05T05:38:21.090Z,100660.91
2022-11-05T05:40:52.492Z,100682.84
2022-11-05T05:43:23.787Z,100696.81
2022-11-05T05:45:57.180Z,100690.69
2022-11-05T05:48:28.603Z,100688.03
2022-11-05T05:51:04.916Z,100688.00
2022-11-05T05:53:36.606Z,100701.97
2022-11-05T05:56:08.188Z,100703.72
2022-11-05T05:58:39.489Z,100699.34
2022-11-05T06:01:18.661Z,100706.25
2022-11-05T06:03:50.758Z,100710.59
2022-11-05T06:06:22.611Z,100706.25
2022-11-05T06:08:56.047Z,100717.59
2022-11-05T06:11:27.671Z,100720.16
2022-11-05T06:13:58.966Z,100713.19
2022-11-05T06:16:35.400Z,100710.53
2022-11-05T06:19:07.495Z,100730.69
2022-11-05T06:21:38.769Z,100734.13
2022-11-05T06:24:10.363Z,100731.44
2022-11-05T06:26:43.178Z,100733.16
2022-11-05T06:29:14.450Z,100732.22
2022-11-05T06:31:45.751Z,100739.19
2022-11-05T06:34:17.029Z,100740.88
2022-11-05T06:36:48.366Z,100735.59
2022-11-05T06:39:19.693Z,100745.22
2022-11-05T06:42:16.619Z,100742.59
2022-11-05T06:44:42.298Z,100749.56
2022-11-05T06:47:13.594Z,100754.78
2022-11-05T06:49:45.904Z,100746.06
2022-11-05T06:52:17.900Z,100746.09
2022-11-05T06:54:49.593Z,100754.88
2022-11-05T06:57:20.868Z,100751.44
2022-11-05T06:59:57.092Z,100752.34
2022-11-05T07:02:31.408Z,100741.78
2022-11-05T07:05:02.765Z,100722.41
2022-11-05T07:07:34.087Z,100754.16
2022-11-05T07:10:07.947Z,100760.28
2022-11-05T07:12:39.236Z,100768.16
2022-11-05T07:15:12.288Z,100770.81
2022-11-05T07:17:43.544Z,100769.97
2022-11-05T07:20:14.926Z,100777.00
2022-11-05T07:22:46.179Z,100770.91
2022-11-05T07:25:17.600Z,100782.34
2022-11-05T07:27:48.878Z,100781.50
2022-11-05T07:30:20.152Z,100790.38
2022-11-05T07:32:51.843Z,100789.59
2022-11-05T07:35:23.843Z,100793.16
2022-11-05T07:37:55.639Z,100799.41
2022-11-05T07:40:29.182Z,100799.53
2022-11-05T07:43:01.775Z,100802.28
2022-11-05T07:45:33.058Z,100796.25
2022-11-05T07:48:04.926Z,100799.03
2022-11-05T07:50:37.601Z,100797.41
2022-11-05T07:53:14.479Z,100808.88
2022-11-05T07:55:46.128Z,100802.78
2022-11-05T07:58:17.389Z,100802.91
2022-11-05T08:00:48.825Z,100804.81
2022-11-05T08:03:20.757Z,100810.16
2022-11-05T08:05:52.349Z,100810.25
2022-11-05T08:08:23.654Z,100797.13
2022-11-05T08:11:02.837Z,100797.22
2022-11-05T08:13:34.437Z,100793.81
2022-11-05T08:16:06.039Z,100789.44
2022-11-05T08:18:37.515Z,100803.56
2022-11-05T08:21:09.498Z,100807.16
2022-11-05T08:23:42.563Z,100815.13
2022-11-05T08:26:13.877Z,100811.66
2022-11-05T08:28:45.243Z,100811.69
2022-11-05T08:31:18.033Z,100816.16
2022-11-05T08:33:49.413Z,100804.75
2022-11-05T08:36:20.700Z,100814.41
2022-11-05T08:38:52.051Z,100816.19
2022-11-05T08:41:23.405Z,100817.09
2022-11-05T08:43:56.171Z,100812.69
2022-11-05T08:46:27.532Z,100819.72
2022-11-05T08:48:58.780Z,100830.25
2022-11-05T08:51:30.765Z,100822.31
2022-11-05T08:54:02.124Z,100828.41
2022-11-05T08:56:33.376Z,100825.72
2022-11-05T08:59:04.638Z,100818.66
2022-11-05T09:01:36.185Z,100825.63
2022-11-05T09:04:08.091Z,100809.72
2022-11-05T09:06:39.379Z,100821.09
2022-11-05T09:09:10.806Z,100820.16
2022-11-05T09:12:10.136Z,100832.44
2022-11-05T09:14:33.474Z,100835.00
2022-11-05T09:17:05.481Z,100829.69
2022-11-05T09:19:39.955Z,100830.44
2022-11-05T09:22:12.839Z,100826.81
2022-11-05T09:24:44.225Z,100814.47
2022-11-05T09:27:15.639Z,100814.41
2022-11-05T09:29:46.907Z,100843.28
2022-11-05T09:32:19.274Z,100837.03
2022-11-05T09:34:50.622Z,100846.56
2022-11-05T09:37:22.035Z,100845.53
2022-11-05T09:39:53.637Z,100834.88
2022-11-05T09:42:37.783Z,100846.16
2022-11-05T09:45:18.964Z,100832.00
2022-11-05T09:47:57.577Z,100851.22
2022-11-05T09:50:50.186Z,100861.69
2022-11-05T09:53:23.805Z,100858.91
2022-11-05T09:55:57.644Z,100854.31
2022-11-05T09:58:39.232Z,100864.75
2022-11-05T10:01:15.888Z,100848.72
2022-11-05T10:03:50.733Z,100842.44
2022-11-05T10:06:24.936Z,100862.53
2022-11-05T10:09:26.541Z,100868.56
2022-11-05T10:12:07.507Z,100865.81
2022-11-05T10:14:45.571Z,100868.38
2022-11-05T10:17:22.396Z,100872.66
2022-11-05T10:20:02.451Z,100883.16
2022-11-05T10:22:33.776Z,100870.66
2022-11-05T10:25:17.268Z,100873.09
2022-11-05T10:27:54.638Z,100873.78
2022-11-05T10:30:26.230Z,100881.50
2022-11-05T10:33:02.358Z,100874.97
2022-11-05T10:35:41.148Z,100879.00
2022-11-05T10:38:17.549Z,100889.22
2022-11-05T10:41:34.527Z,100879.13
2022-11-05T10:44:26.480Z,100885.03
2022-11-05T10:47:27.633Z,100888.16
2022-11-05T10:50:12.991Z,100882.56
2022-11-05T10:53:02.584Z,100862.88
2022-11-05T10:55:54.259Z,100870.28
2022-11-05T10:58:31.610Z,100876.00
2022-11-05T11:01:10.519Z,100872.09
2022-11-05T11:03:49.081Z,100877.13
2022-11-05T11:06:25.990Z,100876.66
2022-11-05T11:09:01.701Z,100876.38
2022-11-05T11:11:36.040Z,100876.94
2022-11-05T11:14:13.442Z,100869.84
2022-11-05T11:16:47.295Z,100865.75
2022-11-05T11:19:30.263Z,100867.41
2022-11-05T11:22:04.524Z,100869.38
2022-11-05T11:24:44.071Z,100866.69
2022-11-05T11:27:28.462Z,100862.91
2022-11-05T11:30:05.298Z,100880.09
2022-11-05T11:32:39.419Z,100868.28
2022-11-05T11:35:24.891Z,100858.56
2022-11-05T11:37:57.771Z,100868.81
2022-11-05T11:40:36.368Z,100866.44
2022-11-05T11:43:29.319Z,100864.94
2022-11-05T11:46:06.069Z,100865.31
2022-11-05T11:48:40.928Z,100870.56
2022-11-05T11:51:32.163Z,100856.94
2022-11-05T11:54:04.840Z,100861.28
2022-11-05T11:56:44.671Z,100865.69
2022-11-05T11:59:53.752Z,100851.72
2022-11-05T12:02:38.545Z,100866.66
2022-11-05T12:05:41.705Z,100854.44
2022-11-05T12:08:30.420Z,100871.88
2022-11-05T12:11:18.477Z,100853.53
2022-11-05T12:14:00.554Z,100863.50
2022-11-05T12:16:56.829Z,100849.66
2022-11-05T12:19:49.989Z,100858.69
2022-11-05T12:22:46.208Z,100854.50
2022-11-05T12:26:03.779Z,100866.19
2022-11-05T12:29:12.319Z,100876.97
2022-11-05T12:32:17.242Z,100872.75
2022-11-05T12:35:06.640Z,100868.41
2022-11-05T12:37:56.791Z,100880.84
2022-11-05T12:40:36.711Z,100875.59
2022-11-05T12:43:34.076Z,100878.47
2022-11-05T12:46:18.167Z,100880.69
2022-11-05T12:48:58.599Z,100875.56
2022-11-05T12:51:42.028Z,100880.19
2022-11-05T12:54:34.663Z,100879.47
2022-11-05T12:57:12.273Z,100882.09
2022-11-05T12:59:54.299Z,100879.16
2022-11-05T13:02:37.666Z,100875.94
2022-11-05T13:05:36.414Z,100882.59
2022-11-05T13:08:16.208Z,100878.91
2022-11-05T13:10:55.813Z,100881.72
2022-11-05T13:13:41.258Z,100877.28
2022-11-05T13:16:18.335Z,100870.88
2022-11-05T13:18:54.380Z,100879.94
2022-11-05T13:21:37.727Z,100875.00
2022-11-05T13:24:25.558Z,100874.06
2022-11-05T13:27:15.759Z,100868.09
2022-11-05T13:29:59.507Z,100868.63
2022-11-05T13:32:35.536Z,100860.09
2022-11-05T13:35:15.895Z,100863.03
2022-11-05T13:38:12.930Z,100857.00
2022-11-05T13:41:09.553Z,100859.88
2022-11-05T13:43:55.941Z,100863.59
2022-11-05T13:46:55.017Z,100866.41
2022-11-05T13:50:00.817Z,100863.78
2022-11-05T13:52:57.352Z,100863.00
2022-11-05T13:55:47.524Z,100862.84
2022-11-05T13:58:41.855Z,100861.03
2022-11-05T14:01:29.990Z,100866.28
2022-11-05T14:04:02.919Z,100864.41
2022-11-05T14:06:36.294Z,100859.81
2022-11-05T14:09:11.748Z,100858.84
2022-11-05T14:11:50.792Z,100858.13
2022-11-05T14:14:30.430Z,100851.22
2022-11-05T14:17:07.987Z,100861.09
2022-11-05T14:20:22.468Z,100864.13
2022-11-05T14:22:53.811Z,100868.16
2022-11-05T14:25:25.215Z,100862.41
2022-11-05T14:27:57.981Z,100858.41
2022-11-05T14:30:46.899Z,100865.03
2022-11-05T14:33:33.062Z,100861.94
2022-11-05T14:36:30.375Z,100871.06
2022-11-05T14:39:18.828Z,100866.81
2022-11-05T14:42:00.244Z,100866.09
2022-11-05T14:44:34.915Z,100876.94
2022-11-05T14:47:19.955Z,100870.91
2022-11-05T14:50:03.420Z,100872.03
2022-11-05T14:52:36.944Z,100874.06
2022-11-05T14:55:26.227Z,100888.50
2022-11-05T14:57:57.441Z,100887.84
2022-11-05T15:00:28.751Z,100897.75
2022-11-05T15:03:02.971Z,100893.50
2022-11-05T15:05:48.592Z,100884.88
2022-11-05T15:08:34.698Z,100889.50
2022-11-05T15:11:35.502Z,100895.03
2022-11-05T15:14:30.153Z,100877.63
2022-11-05T15:17:33.062Z,100886.59
2022-11-05T15:20:18.715Z,100885.91
2022-11-05T15:22:56.591Z,100877.25
2022-11-05T15:26:03.443Z,100884.41
2022-11-05T15:28:47.851Z,100886.38
2022-11-05T15:31:29.045Z,100892.53
2022-11-05T15:34:19.109Z,100891.72
2022-11-05T15:36:54.840Z,100897.03
2022-11-05T15:39:46.412Z,100893.50
2022-11-05T15:42:27.975Z,100890.03
2022-11-05T15:45:00.009Z,100879.47
2022-11-05T15:47:34.541Z,100880.38
2022-11-05T15:50:15.270Z,100894.47
2022-11-05T15:52:52.332Z,100888.31
2022-11-05T15:55:26.109Z,100890.09
2022-11-05T15:58:00.775Z,100890.13
2022-11-05T16:00:36.371Z,100885.72
2022-11-05T16:03:22.840Z,100885.75
2022-11-05T16:05:54.721Z,100878.69
2022-11-05T16:08:28.083Z,100878.72
2022-11-05T16:11:00.638Z,100881.38
2022-11-05T16:13:35.801Z,100880.56
2022-11-05T16:16:24.219Z,100877.03
2022-11-05T16:18:55.601Z,100878.84
2022-11-05T16:21:26.872Z,100882.41
2022-11-05T16:24:00.112Z,100884.19
2022-11-05T16:29:38.130Z,100887.78
2022-11-05T16:32:30.674Z,100883.38
2022-11-05T16:35:07.100Z,100894.00
2022-11-05T16:37:41.013Z,100887.84
2022-11-05T16:40:30.301Z,100892.31
2022-11-05T16:43:29.271Z,100885.22
2022-11-05T16:46:01.613Z,100875.66
2022-11-05T16:48:32.952Z,100895.00
2022-11-05T16:51:04.895Z,100885.31
2022-11-05T16:53:36.345Z,100889.75
2022-11-05T16:56:14.758Z,100894.19
2022-11-05T16:58:48.488Z,100903.06
2022-11-05T17:01:21.969Z,100884.53
2022-11-05T17:03:53.511Z,100897.78
2022-11-05T17:06:24.758Z,100900.44
2022-11-05T17:08:56.044Z,100897.84
2022-11-05T17:11:27.428Z,100904.91
2022-11-05T17:13:58.751Z,100904.94
2022-11-05T17:16:30.258Z,100901.44
2022-11-05T17:19:01.718Z,100905.00
2022-11-05T17:21:32.993Z,100915.66
2022-11-05T17:24:04.720Z,100922.75
2022-11-05T17:26:36.165Z,100918.38
2022-11-05T17:29:07.512Z,100923.72
2022-11-05T17:31:40.413Z,100922.00
2022-11-05T17:34:11.779Z,100922.91
2022-11-05T17:36:43.136Z,100928.25
2022-11-05T17:39:14.484Z,100932.72
2022-11-05T17:41:46.097Z,100934.53
2022-11-05T17:44:17.797Z,100935.47
2022-11-05T17:46:49.718Z,100937.28
2022-11-05T17:49:20.992Z,100939.97
2022-11-05T17:51:52.331Z,100925.13
2022-11-05T17:54:23.767Z,100936.63
2022-11-05T17:56:55.107Z,100938.47
2022-11-05T17:59:26.393Z,100946.44
2022-11-05T18:01:58.423Z,100932.34
2022-11-05T18:04:29.810Z,100930.59
2022-11-05T18:07:02.913Z,100927.03
2022-11-05T18:09:34.240Z,100926.13
2022-11-05T18:12:05.820Z,100903.25
2022-11-05T18:14:37.310Z,100924.38
2022-11-05T18:17:08.741Z,100919.97
2022-11-05T18:19:40.180Z,100924.38
2022-11-05T18:22:11.510Z,100927.03
2022-11-05T18:24:42.883Z,100922.63
2022-11-05T18:27:14.284Z,100927.03
2022-11-05T18:29:46.195Z,100919.09
2022-11-05T18:32:17.594Z,100927.03
2022-11-05T18:34:48.986Z,100910.31
2022-11-05T18:37:20.408Z,100920.84
2022-11-05T18:39:52.867Z,100925.25
2022-11-05T18:42:25.265Z,100932.28
2022-11-05T18:44:56.691Z,100912.88
2022-11-05T18:47:28.372Z,100884.75
2022-11-05T18:50:00.540Z,100911.09
2022-11-05T18:52:32.736Z,100910.22
2022-11-05T18:55:04.677Z,100908.47
2022-11-05T18:57:36.187Z,100902.31
2022-11-05T19:00:08.323Z,100904.06
2022-11-05T19:02:40.805Z,100898.75
2022-11-05T19:05:28.539Z,100903.19
2022-11-05T19:08:00.577Z,100897.91
2022-11-05T19:10:31.911Z,100898.75
2022-11-05T19:13:03.267Z,100897.88
2022-11-05T19:15:34.609Z,100890.00
2022-11-05T19:18:06.010Z,100900.50
2022-11-05T19:20:38.673Z,100902.28
2022-11-05T19:23:09.948Z,100904.94
2022-11-05T19:25:41.258Z,100906.66
2022-11-05T19:28:12.869Z,100899.63
2022-11-05T19:30:45.275Z,100902.28
2022-11-05T19:33:16.613Z,100906.69
2022-11-05T19:35:47.958Z,100909.34
2022-11-05T19:38:19.347Z,100910.22
2022-11-05T19:40:50.687Z,100913.75
2022-11-05T19:43:22.010Z,100904.09
2022-11-05T19:45:53.383Z,100905.81
2022-11-05T19:48:25.341Z,100909.34
2022-11-05T19:50:56.891Z,100905.81
2022-11-05T19:53:28.217Z,100903.16
2022-11-05T19:55:59.623Z,100905.81
2022-11-05T19:58:30.891Z,100906.69
2022-11-05T20:01:02.653Z,100900.50
2022-11-05T20:03:34.161Z,100898.75
2022-11-05T20:06:11.143Z,100899.63
2022-11-05T20:09:07.225Z,100904.91
2022-11-05T20:11:39.817Z,100899.59
2022-11-05T20:14:11.189Z,100907.53
2022-11-05T20:16:44.826Z,100896.13
2022-11-05T20:19:19.355Z,100907.53
2022-11-05T20:21:50.818Z,100903.13
2022-11-05T20:24:25.242Z,100900.47
2022-11-05T20:26:57.371Z,100900.47
2022-11-05T20:29:35.070Z,100889.91
2022-11-05T20:32:07.536Z,100896.91
2022-11-05T20:34:38.904Z,100902.19
2022-11-05T20:37:10.189Z,100900.41
2022-11-05T20:39:41.532Z,100908.34
2022-11-05T20:42:13.108Z,100910.97
2022-11-05T20:44:44.459Z,100903.91
2022-11-05T20:47:15.906Z,100893.38
2022-11-05T20:49:47.178Z,100908.31
2022-11-05T20:52:18.471Z,100904.78
2022-11-05T20:54:49.733Z,100903.91
2022-11-05T20:57:21.092Z,100899.50
2022-11-05T20:59:52.352Z,100903.03
2022-11-05T21:02:23.761Z,100900.41
2022-11-05T21:04:55.098Z,100883.75
2022-11-05T21:07:26.392Z,100894.22
2022-11-05T21:09:57.779Z,100890.72
2022-11-05T21:12:29.353Z,100898.63
2022-11-05T21:15:00.683Z,100907.44
2022-11-05T21:17:31.993Z,100903.88
2022-11-05T21:20:04.455Z,100893.31
2022-11-05T21:22:35.834Z,100899.47
2022-11-05T21:25:07.879Z,100902.09
2022-11-05T21:27:43.424Z,100906.47
2022-11-05T21:30:15.140Z,100913.50
2022-11-05T21:32:46.532Z,100915.28
2022-11-05T21:35:17.864Z,100909.97
2022-11-05T21:37:49.252Z,100903.81
2022-11-05T21:40:20.584Z,100903.78
2022-11-05T21:42:51.848Z,100894.16
2022-11-05T21:45:23.173Z,100883.63
2022-11-05T21:47:54.512Z,100880.97
2022-11-05T21:50:44.953Z,100878.34
2022-11-05T21:53:35.998Z,100870.44
2022-11-05T21:56:45.407Z,100869.59
2022-11-05T21:59:38.869Z,100873.13
2022-11-05T22:02:13.210Z,100863.50
2022-11-05T22:04:46.922Z,100877.53
2022-11-05T22:07:21.652Z,100866.97
2022-11-05T22:09:53.309Z,100859.88
2022-11-05T22:12:25.326Z,100869.56
2022-11-05T22:14:57.094Z,100859.88
2022-11-05T22:17:28.942Z,100840.53
2022-11-05T22:20:00.255Z,100853.75
2022-11-05T22:22:32.025Z,100839.69
2022-11-05T22:25:04.297Z,100836.19
2022-11-05T22:27:35.567Z,100855.59
2022-11-05T22:30:07.226Z,100848.56
2022-11-05T22:32:38.848Z,100858.25
2022-11-05T22:35:10.406Z,100850.31
2022-11-05T22:37:41.716Z,100839.78
2022-11-05T22:40:13.043Z,100853.81
2022-11-05T22:42:44.403Z,100844.09
2022-11-05T22:45:15.822Z,100843.19
2022-11-05T22:47:47.143Z,100846.72
2022-11-05T22:50:18.471Z,100842.28
2022-11-05T22:52:49.745Z,100844.03
2022-11-05T22:55:21.095Z,100842.28
2022-11-05T22:57:52.481Z,100843.16
2022-11-05T23:00:37.795Z,100832.59
2022-11-05T23:03:09.240Z,100840.53
2022-11-05T23:05:40.605Z,100827.34
2022-11-05T23:08:30.350Z,100841.44
2022-11-05T23:11:20.115Z,100848.53
2022-11-05T23:13:51.419Z,100845.94
2022-11-05T23:16:41.496Z,100832.78
2022-11-05T23:19:32.131Z,100838.97
2022-11-05T23:22:22.827Z,100836.38
2022-11-05T23:24:54.173Z,100830.25
2022-11-05T23:27:28.887Z,100830.28
2022-11-05T23:30:01.773Z,100823.28
2022-11-05T23:32:33.714Z,100827.69
2022-11-05T23:35:05.404Z,100819.78
2022-11-05T23:37:55.491Z,100810.94
2022-11-05T23:40:29.926Z,100803.00
2022-11-05T23:43:19.697Z,100795.94
2022-11-05T23:46:09.400Z,100802.00
2022-11-05T23:48:40.770Z,100794.94
2022-11-05T23:51:12.359Z,100785.22
2022-11-05T23:53:43.802Z,100784.22
2022-11-05T23:56:15.644Z,100786.00
2022-11-05T23:58:46.943Z,100792.09
